| time (UTC) | temp F | wind direction | speed MPH | gust MPH | rain 1hr in | rain 24hr in | rain mn in | humidity % | barometer mb |
| 20260510190017 | 64 | 6 | 3.0 | 11.0 | 0.00 | 0.12 | 0.00 | 38 | 1019.6 |
| 20260510180018 | 63 | 9 | 3.0 | 11.0 | 0.00 | 0.12 | 0.00 | 41 | 1019.8 |
| 20260510170050 | 61 | 358 | 4.0 | 11.0 | 0.00 | 0.12 | 0.00 | 42 | 1020.1 |
| 20260510160018 | 61 | 358 | 4.0 | 12.0 | 0.00 | 0.12 | 0.00 | 45 | 1019.8 |
| 20260510150018 | 59 | 358 | 4.0 | 12.0 | 0.00 | 0.12 | 0.00 | 54 | 1018.9 |
| 20260510140018 | 57 | 4 | 3.0 | 10.0 | 0.00 | 0.12 | 0.00 | 63 | 1018.5 |
| 20260510130018 | 55 | 358 | 2.0 | 0.0 | 0.00 | 0.12 | 0.00 | 80 | 1017.8 |
| 20260510120150 | 54 | 332 | 1.0 | 0.0 | 0.00 | 0.12 | 0.00 | 90 | 1016.7 |
| 20260510110017 | 55 | 338 | 2.0 | 0.0 | 0.00 | 0.12 | 0.00 | 96 | 1015.4 |
| 20260510100017 | 55 | 310 | 1.0 | 0.0 | 0.00 | 0.12 | 0.00 | 97 | 1014.9 |
| 20260510090050 | 56 | 215 | 0.0 | 0.0 | 0.00 | 0.12 | 0.00 | 97 | 1013.9 |
| 20260510080017 | 57 | 204 | 0.0 | 0.0 | 0.00 | 0.12 | 0.00 | 96 | 1013.1 |
| 20260510070018 | 59 | 353 | 2.0 | 0.0 | 0.00 | 0.12 | 0.00 | 94 | 1012.9 |
| 20260510060017 | 60 | 35 | 2.0 | 0.0 | 0.04 | 0.12 | 0.00 | 94 | 1012.1 |
| 20260510050017 | 60 | 1 | 2.0 | 11.0 | 0.04 | 0.07 | 0.00 | 92 | 1012.4 |
| 20260510040018 | 63 | 344 | 6.0 | 31.0 | 0.03 | 0.03 | 0.00 | 80 | 1012.1 |
| 20260510030017 | 67 | 170 | 1.0 | 0.0 | 0.00 | 0.00 | 0.00 | 57 | 1009.7 |
| 20260510020019 | 68 | 161 | 1.0 | 0.0 | 0.00 | 0.00 | 0.00 | 54 | 1008.8 |
| 20260510010017 | 73 | 158 | 0.0 | 0.0 | 0.00 | 0.00 | 0.00 | 41 | 1008.4 |
| 20260510000018 | 78 | 302 | 1.0 | 0.0 | 0.00 | 0.00 | 0.00 | 32 | 1008.2 |
| 20260509230018 | 79 | 318 | 2.0 | 11.0 | 0.00 | 0.32 | 0.00 | 32 | 1008.0 |
| 20260509220049 | 79 | 325 | 3.0 | 17.0 | 0.00 | 0.32 | 0.00 | 36 | 1008.1 |
| 20260509210019 | 79 | 325 | 3.0 | 11.0 | 0.00 | 0.32 | 0.00 | 37 | 1008.5 |
| 20260509200018 | 78 | 327 | 4.0 | 16.0 | 0.00 | 0.32 | 0.00 | 38 | 1008.7 |